MIE weather

Delaware County Johnson Field
Muncie, Indiana, United States

Public forecast

Using degrees Fahrenheit for public forecast. Weather courtesy of forecast.io.

METAR (pilot weather report)

Retrieved 2019/05/25 16:53 UTC (24 minutes ago):

KMIE 251653Z 24015G26KT 10SM FEW047 31/18 A2999 RMK AO2 PK WND 26029/1607 LTG DSNT N SLP144 T03060178

TAF (pilot weather forecast)

Forecast is more than 6 hours old.

Closest forecast is Grissom Air Reserve Base, 42.3 nm (78.3 km) NW. Retrieved 2019/05/25 11:03 UTC (6 hours ago):

TAF KGUS 251100Z 2511/2617 20009KT 9999 FEW040 FEW180 QNH2991INS BECMG 2511/2512 23010G15KT 9999 FEW030 SCT060 QNH2990INS BECMG 2514/2515 24020G30KT 9999 SCT050 510003 QNH2995INS TEMPO 2518/2521 4800 -TSRA BKN030CB BECMG 2523/2524 22012KT 9999 SCT030 BKN050 QNH2998INS BECMG 2605/2606 22012KT 8000 -SHRA FEW018 BKN030 OVC050 QNH2997INS TEMPO 2610/2614 27015G25KT 4800 -TSRA BKN015CB OVC030 TX29/2521Z TN18/2610Z